Time;durP1;ratioP1;P1;durP2;ratioP2;P2;SDS_P1;SDS_P2;PMS_P1;PMS_P2;Temp;Humidity;BMP_temperature;BMP_pressure;BME280_temperature;BME280_humidity;BME280_pressure;Samples;Min_cycle;Max_cycle;Signal;HPM_P1;HPM_P2
2022/02/13 00:02:08;;;;;;;36.88;22.90;;;;;;;;;;4814779;29;91933;-83
2022/02/13 00:04:36;;;;;;;39.95;21.45;;;;;;;;;;4814533;29;94703;-82
2022/02/13 00:07:05;;;;;;;25.10;15.85;;;;;;;;;;4804893;29;94646;-83
2022/02/13 00:09:32;;;;;;;22.10;15.57;;;;;;;;;;4830798;29;93016;-83
2022/02/13 00:12:02;;;;;;;21.20;14.82;;;;;;;;;;4831820;29;91838;-83
2022/02/13 00:14:31;;;;;;;17.92;13.75;;;;;;;;;;4831084;29;93351;-83
2022/02/13 00:16:59;;;;;;;22.45;15.32;;;;;;;;;;4831692;29;92405;-85
2022/02/13 00:19:27;;;;;;;25.98;17.48;;;;;;;;;;4830988;29;92053;-84
2022/02/13 00:21:57;;;;;;;26.85;18.88;;;;;;;;;;4815002;29;91997;-84
2022/02/13 00:24:25;;;;;;;23.67;18.55;;;;;;;;;;4827520;29;94827;-84
2022/02/13 00:26:54;;;;;;;20.27;15.82;;;;;;;;;;4815557;29;94448;-84
2022/02/13 00:29:26;;;;;;;24.50;18.40;;;;;;;;;;4828391;29;92030;-85
2022/02/13 00:31:53;;;;;;;21.20;17.63;;;;;;;;;;4829526;29;92064;-85
2022/02/13 00:34:22;;;;;;;25.83;18.58;;;;;;;;;;4816303;29;94894;-84
2022/02/13 00:36:50;;;;;;;20.80;17.13;;;;;;;;;;4831026;29;93526;-85
2022/02/13 00:39:18;;;;;;;22.08;18.38;;;;;;;;;;4831279;29;91991;-88
2022/02/13 00:41:46;;;;;;;20.15;16.85;;;;;;;;;;4820942;29;92147;-87
2022/02/13 00:44:14;;;;;;;27.88;18.60;;;;;;;;;;4818547;29;94720;-88
2022/02/13 00:46:42;;;;;;;20.80;18.65;;;;;;;;;;4830856;29;94429;-88
2022/02/13 00:49:09;;;;;;;23.48;18.23;;;;;;;;;;4831520;29;91985;-88
2022/02/13 00:51:37;;;;;;;20.38;17.20;;;;;;;;;;4830598;29;91155;-87
2022/02/13 00:54:06;;;;;;;21.58;17.65;;;;;;;;;;4828244;29;93975;-88
2022/02/13 00:56:33;;;;;;;19.88;17.77;;;;;;;;;;4828812;29;94368;-88
2022/02/13 00:59:01;;;;;;;18.92;16.95;;;;;;;;;;4828960;29;92769;-86
2022/02/13 01:01:30;;;;;;;19.92;16.67;;;;;;;;;;4829157;29;92004;-88
2022/02/13 01:03:58;;;;;;;19.52;17.00;;;;;;;;;;4829383;29;94452;-87
2022/02/13 01:06:27;;;;;;;27.27;19.10;;;;;;;;;;4830634;29;94491;-87
2022/02/13 01:08:56;;;;;;;22.10;16.88;;;;;;;;;;4831750;29;91877;-87
2022/02/13 01:11:25;;;;;;;20.65;18.40;;;;;;;;;;4836589;29;91960;-84
2022/02/13 01:13:52;;;;;;;20.17;16.85;;;;;;;;;;4838552;29;93627;-87
2022/02/13 01:16:20;;;;;;;20.25;15.73;;;;;;;;;;4814533;29;94497;-86
2022/02/13 01:18:48;;;;;;;19.63;17.52;;;;;;;;;;4829845;29;91825;-88
2022/02/13 01:21:16;;;;;;;20.83;17.42;;;;;;;;;;4830522;29;91980;-87
2022/02/13 01:23:44;;;;;;;20.88;16.73;;;;;;;;;;4828994;29;95383;-87
2022/02/13 01:26:13;;;;;;;21.33;16.92;;;;;;;;;;4815223;29;95093;-87
2022/02/13 01:28:42;;;;;;;27.75;18.92;;;;;;;;;;4827446;29;92919;-87
2022/02/13 01:31:09;;;;;;;29.52;19.17;;;;;;;;;;4830241;29;92205;-87
2022/02/13 01:33:39;;;;;;;20.90;18.00;;;;;;;;;;4814330;29;93546;-88
2022/02/13 01:36:06;;;;;;;25.33;17.67;;;;;;;;;;4829719;29;94362;-87
2022/02/13 01:38:36;;;;;;;23.50;20.42;;;;;;;;;;4830153;29;91916;-87
2022/02/13 01:41:05;;;;;;;18.13;16.33;;;;;;;;;;4814415;29;91294;-87
2022/02/13 01:43:34;;;;;;;19.30;17.30;;;;;;;;;;4829716;29;93332;-87
2022/02/13 01:46:02;;;;;;;21.05;17.75;;;;;;;;;;4812720;29;94749;-88
2022/02/13 01:48:30;;;;;;;18.05;15.35;;;;;;;;;;4829841;29;92981;-88
2022/02/13 01:50:58;;;;;;;17.02;13.70;;;;;;;;;;4829036;29;92032;-87
2022/02/13 01:53:46;;;;;;;13.57;11.65;;;;;;;;;;4815816;29;94656;-88
2022/02/13 01:56:15;;;;;;;16.92;10.52;;;;;;;;;;4827876;29;94279;-87
2022/02/13 01:58:44;;;;;;;15.25;10.50;;;;;;;;;;4829335;29;91878;-87
2022/02/13 02:01:12;;;;;;;9.93;8.95;;;;;;;;;;4812794;29;92064;-85
2022/02/13 02:03:40;;;;;;;11.77;10.60;;;;;;;;;;4828898;29;95058;-85
2022/02/13 02:06:08;;;;;;;10.60;9.15;;;;;;;;;;4829894;29;94460;-84
2022/02/13 02:08:37;;;;;;;11.95;9.02;;;;;;;;;;4830680;29;91975;-86
2022/02/13 02:11:05;;;;;;;9.93;8.70;;;;;;;;;;4830775;29;91983;-85
2022/02/13 02:13:34;;;;;;;8.88;7.97;;;;;;;;;;4828616;29;94743;-85
2022/02/13 02:16:02;;;;;;;8.60;7.75;;;;;;;;;;4813455;29;93946;-85
2022/02/13 02:18:30;;;;;;;10.25;9.25;;;;;;;;;;4830818;29;91973;-84
2022/02/13 02:21:02;;;;;;;11.73;10.57;;;;;;;;;;4830488;29;91930;-85
2022/02/13 02:23:33;;;;;;;11.18;9.20;;;;;;;;;;4827526;29;94244;-84
2022/02/13 02:26:01;;;;;;;9.98;8.32;;;;;;;;;;4829617;29;94261;-85
2022/02/13 02:28:29;;;;;;;9.98;8.95;;;;;;;;;;4828295;29;92587;-84
2022/02/13 02:30:58;;;;;;;11.73;8.60;;;;;;;;;;4830082;29;91331;-83
2022/02/13 02:33:27;;;;;;;10.13;8.43;;;;;;;;;;4828550;29;93256;-84
2022/02/13 02:35:55;;;;;;;11.68;10.15;;;;;;;;;;4829682;29;94195;-84
2022/02/13 02:38:23;;;;;;;10.00;7.93;;;;;;;;;;4828381;29;92709;-84
2022/02/13 02:40:51;;;;;;;9.63;8.57;;;;;;;;;;4830244;29;92048;-84
2022/02/13 02:43:19;;;;;;;9.85;8.90;;;;;;;;;;4829213;29;94338;-83
2022/02/13 02:45:47;;;;;;;13.88;10.02;;;;;;;;;;4829354;29;94512;-83
2022/02/13 02:48:15;;;;;;;11.70;10.48;;;;;;;;;;4812352;29;91931;-83
2022/02/13 02:50:43;;;;;;;13.43;9.43;;;;;;;;;;4828288;29;91928;-82
2022/02/13 02:53:12;;;;;;;10.75;9.13;;;;;;;;;;4813110;29;93787;-85
2022/02/13 02:55:40;;;;;;;10.70;9.70;;;;;;;;;;4813600;29;93479;-84
2022/02/13 02:58:09;;;;;;;11.40;8.73;;;;;;;;;;4829856;29;91811;-84
2022/02/13 03:00:38;;;;;;;10.73;9.63;;;;;;;;;;4828672;29;91951;-83
2022/02/13 03:03:05;;;;;;;9.98;8.45;;;;;;;;;;4828512;29;95572;-84
2022/02/13 03:05:35;;;;;;;11.65;8.43;;;;;;;;;;4812655;29;95396;-84
2022/02/13 03:08:02;;;;;;;9.63;8.60;;;;;;;;;;4829767;29;91664;-85
2022/02/13 03:10:30;;;;;;;12.25;9.85;;;;;;;;;;4829367;29;92110;-82
2022/02/13 03:12:58;;;;;;;11.88;9.57;;;;;;;;;;4827974;29;94395;-82
2022/02/13 03:15:26;;;;;;;9.18;8.10;;;;;;;;;;4828556;29;94448;-83
2022/02/13 03:17:54;;;;;;;9.40;8.48;;;;;;;;;;4829791;29;91706;-83
2022/02/13 03:20:22;;;;;;;7.88;7.10;;;;;;;;;;4828905;29;91341;-82
2022/02/13 03:22:50;;;;;;;8.35;7.45;;;;;;;;;;4829010;29;94617;-84
2022/02/13 03:25:18;;;;;;;9.05;7.65;;;;;;;;;;4828633;29;94374;-85
2022/02/13 03:27:45;;;;;;;8.85;7.38;;;;;;;;;;4800723;29;92819;-87
2022/02/13 03:30:13;;;;;;;10.52;7.72;;;;;;;;;;4817132;29;92005;-85
2022/02/13 03:32:40;;;;;;;9.77;8.77;;;;;;;;;;4830996;29;91924;-85
2022/02/13 03:35:09;;;;;;;9.38;7.22;;;;;;;;;;4816197;29;93822;-85
2022/02/13 03:37:38;;;;;;;9.82;8.05;;;;;;;;;;4830866;29;92018;-84
2022/02/13 03:40:11;;;;;;;9.57;7.07;;;;;;;;;;4816569;29;92094;-85
2022/02/13 03:42:39;;;;;;;8.77;7.93;;;;;;;;;;4831583;29;94609;-85
2022/02/13 03:45:07;;;;;;;11.20;8.27;;;;;;;;;;4832435;29;92983;-84
2022/02/13 03:47:36;;;;;;;9.35;8.50;;;;;;;;;;4815583;29;92552;-84
2022/02/13 03:50:04;;;;;;;8.98;8.02;;;;;;;;;;4832480;29;92030;-85
2022/02/13 03:52:31;;;;;;;10.07;8.18;;;;;;;;;;4829550;29;95365;-84
2022/02/13 03:55:00;;;;;;;11.20;8.77;;;;;;;;;;4815391;29;95256;-85
2022/02/13 03:57:31;;;;;;;11.27;9.07;;;;;;;;;;4830603;29;91862;-85
2022/02/13 03:59:59;;;;;;;11.63;9.77;;;;;;;;;;4831615;29;91893;-84
2022/02/13 04:02:38;;;;;;;9.93;8.90;;;;;;;;;;4830039;29;92200;-84
2022/02/13 04:05:06;;;;;;;9.38;8.48;;;;;;;;;;4830593;29;94677;-84
2022/02/13 04:07:37;;;;;;;11.30;8.63;;;;;;;;;;4831130;29;91656;-84
2022/02/13 04:10:09;;;;;;;10.07;8.57;;;;;;;;;;4832255;29;91084;-84
2022/02/13 04:12:37;;;;;;;10.02;8.68;;;;;;;;;;4832440;29;94566;-84
2022/02/13 04:15:07;;;;;;;9.13;7.65;;;;;;;;;;4832028;29;94625;-83
2022/02/13 04:17:34;;;;;;;10.95;8.25;;;;;;;;;;4831071;29;92604;-83
2022/02/13 04:20:02;;;;;;;10.75;8.27;;;;;;;;;;4831874;29;92046;-84
2022/02/13 04:22:30;;;;;;;8.02;7.13;;;;;;;;;;4831569;29;94633;-83
2022/02/13 04:24:58;;;;;;;9.90;8.13;;;;;;;;;;4830843;29;94313;-84
2022/02/13 04:27:25;;;;;;;13.65;9.20;;;;;;;;;;4832197;29;91853;-83
2022/02/13 04:29:52;;;;;;;10.65;8.40;;;;;;;;;;4831704;29;92284;-82
2022/02/13 04:32:21;;;;;;;9.15;8.25;;;;;;;;;;4800729;29;94225;-82
2022/02/13 04:34:55;;;;;;;8.93;8.02;;;;;;;;;;4832208;29;92554;-83
2022/02/13 04:37:30;;;;;;;10.10;7.75;;;;;;;;;;4828372;29;91829;-83
2022/02/13 04:39:58;;;;;;;9.13;8.23;;;;;;;;;;4830388;29;92665;-84
2022/02/13 04:42:26;;;;;;;10.30;7.32;;;;;;;;;;4828911;29;96133;-83
2022/02/13 04:44:54;;;;;;;7.97;7.10;;;;;;;;;;4815630;29;95519;-83
2022/02/13 04:47:21;;;;;;;10.48;7.93;;;;;;;;;;4831023;29;91982;-82
2022/02/13 04:49:49;;;;;;;9.13;8.15;;;;;;;;;;4831354;29;91695;-83
2022/02/13 04:52:17;;;;;;;12.70;8.48;;;;;;;;;;4830676;29;94732;-82
2022/02/13 04:54:45;;;;;;;9.23;7.32;;;;;;;;;;4831295;29;93819;-83
2022/02/13 04:57:13;;;;;;;8.73;7.40;;;;;;;;;;4831316;29;91790;-82
2022/02/13 04:59:41;;;;;;;9.93;7.20;;;;;;;;;;4830439;29;91261;-83
2022/02/13 05:02:10;;;;;;;9.02;7.63;;;;;;;;;;4830018;29;94371;-84
2022/02/13 05:04:38;;;;;;;8.88;7.35;;;;;;;;;;4830883;29;94289;-83
2022/02/13 05:07:07;;;;;;;8.73;7.80;;;;;;;;;;4830596;29;92826;-79
2022/02/13 05:09:35;;;;;;;8.52;7.72;;;;;;;;;;4830741;29;91972;-79
2022/02/13 05:12:03;;;;;;;8.07;7.28;;;;;;;;;;4828688;29;94285;-79
2022/02/13 05:14:32;;;;;;;7.38;6.63;;;;;;;;;;4830289;29;95048;-78
2022/02/13 05:17:00;;;;;;;9.90;8.90;;;;;;;;;;4799592;29;91857;-78
2022/02/13 05:19:28;;;;;;;8.70;7.78;;;;;;;;;;4799312;29;91995;-79
2022/02/13 05:21:57;;;;;;;8.20;7.38;;;;;;;;;;4830873;29;93370;-79
2022/02/13 05:24:24;;;;;;;8.85;7.43;;;;;;;;;;4813965;29;92915;-80
2022/02/13 05:26:51;;;;;;;8.77;7.88;;;;;;;;;;4830931;29;91938;-78
2022/02/13 05:29:20;;;;;;;10.05;7.25;;;;;;;;;;4830370;29;91885;-78
2022/02/13 05:31:48;;;;;;;8.95;8.05;;;;;;;;;;4829629;29;95264;-78
2022/02/13 05:34:16;;;;;;;8.30;7.35;;;;;;;;;;4828444;29;94490;-78
2022/02/13 05:36:44;;;;;;;12.80;8.15;;;;;;;;;;4830011;29;91709;-79
2022/02/13 05:39:12;;;;;;;7.13;6.43;;;;;;;;;;4813672;29;91965;-79
2022/02/13 05:41:41;;;;;;;9.27;7.50;;;;;;;;;;4830183;29;94439;-78
2022/02/13 05:44:09;;;;;;;9.13;7.22;;;;;;;;;;4830186;29;94517;-79
2022/02/13 05:46:37;;;;;;;8.10;7.30;;;;;;;;;;4830441;29;91871;-79
2022/02/13 05:49:06;;;;;;;7.90;7.15;;;;;;;;;;4829190;29;91287;-79
2022/02/13 05:51:34;;;;;;;8.48;7.60;;;;;;;;;;4829530;29;94846;-78
2022/02/13 05:54:01;;;;;;;8.35;7.40;;;;;;;;;;4829890;29;93420;-79
2022/02/13 05:56:30;;;;;;;8.35;7.47;;;;;;;;;;4829582;29;92802;-79
2022/02/13 05:58:59;;;;;;;8.65;7.68;;;;;;;;;;4830768;29;91670;-79
2022/02/13 06:01:27;;;;;;;8.45;7.68;;;;;;;;;;4829609;29;94149;-79
2022/02/13 06:03:55;;;;;;;9.32;7.97;;;;;;;;;;4829534;29;94378;-78
2022/02/13 06:06:22;;;;;;;11.38;9.00;;;;;;;;;;4829845;29;91703;-81
2022/02/13 06:08:50;;;;;;;12.10;9.43;;;;;;;;;;4828788;29;91820;-83
2022/02/13 06:11:18;;;;;;;8.25;7.53;;;;;;;;;;4828743;29;92664;-82
2022/02/13 06:13:46;;;;;;;9.88;8.93;;;;;;;;;;4828926;29;93007;-81
2022/02/13 06:16:13;;;;;;;36.38;11.00;;;;;;;;;;4813339;29;91892;-82
2022/02/13 06:18:41;;;;;;;8.77;7.88;;;;;;;;;;4828922;29;91993;-81
2022/02/13 06:21:09;;;;;;;11.70;9.10;;;;;;;;;;4829589;29;94974;-83
2022/02/13 06:23:36;;;;;;;9.75;8.82;;;;;;;;;;4829427;29;95140;-82
2022/02/13 06:26:04;;;;;;;9.60;7.63;;;;;;;;;;4813623;29;91878;-83
2022/02/13 06:28:34;;;;;;;9.48;8.50;;;;;;;;;;4829907;29;92011;-83
2022/02/13 06:31:01;;;;;;;9.10;8.18;;;;;;;;;;4829129;29;94132;-82
2022/02/13 06:33:29;;;;;;;9.55;8.13;;;;;;;;;;4812924;29;94211;-82
2022/02/13 06:35:57;;;;;;;8.60;7.00;;;;;;;;;;4813779;29;91943;-82
2022/02/13 06:38:25;;;;;;;12.07;7.50;;;;;;;;;;4830175;29;91646;-80
2022/02/13 06:40:52;;;;;;;11.35;7.68;;;;;;;;;;4813682;29;94698;-82
2022/02/13 06:43:20;;;;;;;9.05;8.25;;;;;;;;;;4812781;29;94651;-82
2022/02/13 06:45:48;;;;;;;9.40;8.20;;;;;;;;;;4829680;29;92732;-81
2022/02/13 06:48:15;;;;;;;9.27;8.32;;;;;;;;;;4830235;29;91959;-81
2022/02/13 06:50:43;;;;;;;8.32;7.13;;;;;;;;;;4812692;29;93712;-81
2022/02/13 06:53:11;;;;;;;9.90;8.45;;;;;;;;;;4829325;29;92943;-82
2022/02/13 06:55:40;;;;;;;9.52;8.60;;;;;;;;;;4829574;29;91789;-82
2022/02/13 06:58:07;;;;;;;10.18;8.45;;;;;;;;;;4829611;29;92007;-82
2022/02/13 07:00:34;;;;;;;9.48;8.48;;;;;;;;;;4827218;29;95167;-84
2022/02/13 07:03:03;;;;;;;10.27;9.27;;;;;;;;;;4812002;29;93787;-80
2022/02/13 07:05:31;;;;;;;8.80;7.90;;;;;;;;;;4827689;29;91895;-80
2022/02/13 07:07:59;;;;;;;10.32;9.23;;;;;;;;;;4828461;29;91920;-83
2022/02/13 07:10:27;;;;;;;11.48;8.38;;;;;;;;;;4827107;29;96758;-79
2022/02/13 07:12:55;;;;;;;9.40;8.43;;;;;;;;;;4828450;29;95132;-80
2022/02/13 07:15:24;;;;;;;10.02;9.13;;;;;;;;;;4829130;29;91820;-79
2022/02/13 07:17:51;;;;;;;10.80;9.65;;;;;;;;;;4813167;29;91940;-79
2022/02/13 07:20:19;;;;;;;12.02;9.07;;;;;;;;;;4835607;29;95161;-80
2022/02/13 07:22:47;;;;;;;10.38;9.10;;;;;;;;;;4829353;29;94192;-79
2022/02/13 07:25:15;;;;;;;11.85;10.65;;;;;;;;;;4814705;29;91973;-79
2022/02/13 07:27:44;;;;;;;10.25;9.18;;;;;;;;;;4822499;29;91266;-78
2022/02/13 07:30:13;;;;;;;19.52;13.93;;;;;;;;;;4827803;29;94867;-79
2022/02/13 07:32:42;;;;;;;18.23;12.68;;;;;;;;;;4798794;29;94474;-77
2022/02/13 07:35:12;;;;;;;16.48;10.93;;;;;;;;;;4826902;29;92944;-79
2022/02/13 07:37:40;;;;;;;14.75;11.70;;;;;;;;;;4823821;29;92318;-77
2022/02/13 07:40:08;;;;;;;11.55;10.45;;;;;;;;;;4809101;29;94488;-77
2022/02/13 07:42:41;;;;;;;26.17;16.75;;;;;;;;;;4821989;29;94439;-77
2022/02/13 07:45:12;;;;;;;17.17;14.15;;;;;;;;;;4809892;29;92007;-77
2022/02/13 07:47:41;;;;;;;17.20;13.77;;;;;;;;;;4825926;29;92183;-77
2022/02/13 07:50:10;;;;;;;15.18;11.90;;;;;;;;;;4824994;29;94316;-76
2022/02/13 07:52:37;;;;;;;18.90;13.52;;;;;;;;;;4808520;29;93109;-76
2022/02/13 07:55:05;;;;;;;15.98;12.70;;;;;;;;;;4820957;29;92772;-76
2022/02/13 07:57:34;;;;;;;16.05;12.30;;;;;;;;;;4823940;29;92076;-76
2022/02/13 08:00:02;;;;;;;18.08;14.77;;;;;;;;;;4824570;29;95165;-75
2022/02/13 08:02:38;;;;;;;16.65;14.90;;;;;;;;;;4823384;29;93797;-77
2022/02/13 08:05:08;;;;;;;9.98;9.00;;;;;;;;;;4809851;29;91999;-76
2022/02/13 08:07:43;;;;;;;11.23;9.07;;;;;;;;;;4825833;29;91879;-77
2022/02/13 08:10:15;;;;;;;10.32;9.32;;;;;;;;;;4824264;29;93533;-77
2022/02/13 08:12:42;;;;;;;13.23;10.95;;;;;;;;;;4808574;29;93851;-77
2022/02/13 08:15:10;;;;;;;17.10;11.95;;;;;;;;;;4827882;29;92136;-77
2022/02/13 08:17:38;;;;;;;13.73;11.43;;;;;;;;;;4829821;29;91211;-77
2022/02/13 08:20:07;;;;;;;16.25;13.23;;;;;;;;;;4826828;29;92900;-77
2022/02/13 08:22:35;;;;;;;17.10;12.15;;;;;;;;;;4825891;29;93600;-77
2022/02/13 08:25:09;;;;;;;19.73;13.13;;;;;;;;;;4828532;29;93161;-77
2022/02/13 08:27:37;;;;;;;13.13;11.77;;;;;;;;;;4835198;29;91981;-73
2022/02/13 08:30:05;;;;;;;14.07;10.57;;;;;;;;;;4831092;29;94432;-74
2022/02/13 08:32:32;;;;;;;13.13;11.60;;;;;;;;;;4816808;29;93437;-74
2022/02/13 08:35:00;;;;;;;13.95;11.57;;;;;;;;;;4814639;29;93009;-75
2022/02/13 08:37:29;;;;;;;14.00;10.73;;;;;;;;;;4820716;29;92089;-74
2022/02/13 08:39:56;;;;;;;13.82;11.73;;;;;;;;;;4819792;29;94584;-75
2022/02/13 08:42:24;;;;;;;11.85;10.63;;;;;;;;;;4817979;29;94242;-75
2022/02/13 08:44:53;;;;;;;14.68;10.40;;;;;;;;;;4834048;29;91954;-75
2022/02/13 08:47:21;;;;;;;13.98;9.30;;;;;;;;;;4834039;29;92134;-75
2022/02/13 08:49:49;;;;;;;12.82;8.38;;;;;;;;;;4835453;29;94262;-75
2022/02/13 08:52:17;;;;;;;10.07;9.02;;;;;;;;;;4833021;29;94095;-75
2022/02/13 08:54:46;;;;;;;10.07;8.75;;;;;;;;;;4835061;29;91885;-75
2022/02/13 08:57:14;;;;;;;12.32;8.98;;;;;;;;;;4832932;29;92012;-75
2022/02/13 08:59:42;;;;;;;10.60;8.82;;;;;;;;;;4830514;29;95040;-75
2022/02/13 09:02:10;;;;;;;8.68;7.82;;;;;;;;;;4816776;29;94577;-75
2022/02/13 09:04:37;;;;;;;10.27;7.88;;;;;;;;;;4816903;29;91895;-75
2022/02/13 09:07:05;;;;;;;13.63;8.82;;;;;;;;;;4832936;29;91302;-74
2022/02/13 09:09:33;;;;;;;10.60;9.00;;;;;;;;;;4817159;29;94690;-74
2022/02/13 09:12:00;;;;;;;16.20;8.50;;;;;;;;;;4818896;29;93643;-75
2022/02/13 09:14:30;;;;;;;9.63;8.73;;;;;;;;;;4832640;29;93351;-75
2022/02/13 09:16:57;;;;;;;14.73;8.63;;;;;;;;;;4834491;29;91966;-74
2022/02/13 09:19:28;;;;;;;9.63;8.27;;;;;;;;;;4833154;29;95496;-74
2022/02/13 09:21:56;;;;;;;13.57;9.73;;;;;;;;;;4833989;29;96347;-74
2022/02/13 09:24:24;;;;;;;9.82;8.38;;;;;;;;;;4835270;29;91862;-75
2022/02/13 09:26:53;;;;;;;10.35;8.77;;;;;;;;;;4832373;29;92212;-80
2022/02/13 09:29:21;;;;;;;9.88;8.45;;;;;;;;;;4834366;29;94955;-77
2022/02/13 09:31:50;;;;;;;24.35;11.10;;;;;;;;;;4834447;29;94427;-78
2022/02/13 09:34:25;;;;;;;9.63;7.82;;;;;;;;;;4834486;29;92022;-77
2022/02/13 09:36:53;;;;;;;8.63;7.82;;;;;;;;;;4834281;29;92106;-77
2022/02/13 09:39:21;;;;;;;8.77;6.93;;;;;;;;;;4832942;29;95586;-78
2022/02/13 09:41:49;;;;;;;7.65;5.32;;;;;;;;;;4835773;29;94818;-78
2022/02/13 09:44:18;;;;;;;8.30;5.38;;;;;;;;;;4835627;29;91970;-76
2022/02/13 09:46:46;;;;;;;12.75;5.75;;;;;;;;;;4818926;29;92164;-79
2022/02/13 09:49:18;;;;;;;10.32;5.78;;;;;;;;;;4835242;29;94786;-76
2022/02/13 09:51:46;;;;;;;13.25;8.15;;;;;;;;;;4818422;29;94072;-75
2022/02/13 09:54:14;;;;;;;13.35;7.28;;;;;;;;;;4833821;29;91986;-75
2022/02/13 09:56:46;;;;;;;10.55;7.15;;;;;;;;;;4832631;29;91124;-76
2022/02/13 09:59:13;;;;;;;11.80;6.60;;;;;;;;;;4827054;29;94868;-78
2022/02/13 10:01:45;;;;;;;12.98;7.80;;;;;;;;;;4811229;29;94578;-73
2022/02/13 10:04:13;;;;;;;10.02;7.10;;;;;;;;;;4827526;29;93224;-78
2022/02/13 10:06:43;;;;;;;12.38;10.07;;;;;;;;;;4828724;29;91977;-76
2022/02/13 10:09:13;;;;;;;16.35;11.05;;;;;;;;;;4827499;29;94617;-75
2022/02/13 10:11:45;;;;;;;13.57;11.00;;;;;;;;;;4811503;29;93045;-85
2022/02/13 10:14:15;;;;;;;25.67;12.95;;;;;;;;;;4811821;29;92071;-81
2022/02/13 10:16:49;;;;;;;13.57;10.15;;;;;;;;;;4822752;29;92047;-76
2022/02/13 10:19:22;;;;;;;12.95;7.85;;;;;;;;;;4827261;29;94634;-77
2022/02/13 10:21:52;;;;;;;8.68;7.53;;;;;;;;;;4827638;29;94228;-76
2022/02/13 10:24:36;;;;;;;14.35;6.32;;;;;;;;;;4809339;29;91942;-76
2022/02/13 10:27:15;;;;;;;11.85;5.97;;;;;;;;;;4823951;29;92036;-76
2022/02/13 10:29:45;;;;;;;7.68;5.50;;;;;;;;;;4828724;29;96735;-78
2022/02/13 10:32:17;;;;;;;9.02;5.90;;;;;;;;;;4826995;29;94344;-75
2022/02/13 10:35:03;;;;;;;7.03;5.50;;;;;;;;;;4827724;29;92459;-77
2022/02/13 10:37:41;;;;;;;6.72;5.55;;;;;;;;;;4827497;29;93819;-78
2022/02/13 10:40:11;;;;;;;12.43;6.72;;;;;;;;;;4827980;29;93847;-76
2022/02/13 10:42:39;;;;;;;9.60;7.03;;;;;;;;;;4827066;29;93173;-75
2022/02/13 10:45:22;;;;;;;12.85;7.18;;;;;;;;;;4825914;29;93298;-75
2022/02/13 10:47:54;;;;;;;8.55;7.28;;;;;;;;;;4827030;29;91118;-73
2022/02/13 10:50:22;;;;;;;11.20;6.82;;;;;;;;;;4826842;29;93277;-73
2022/02/13 10:52:53;;;;;;;8.27;7.28;;;;;;;;;;4826630;29;94995;-75
2022/02/13 10:55:21;;;;;;;9.55;8.05;;;;;;;;;;4825207;29;93080;-73
2022/02/13 10:57:49;;;;;;;16.90;8.93;;;;;;;;;;4825539;29;92264;-73
2022/02/13 11:00:20;;;;;;;9.20;7.20;;;;;;;;;;4825606;29;93839;-73
2022/02/13 11:02:50;;;;;;;9.63;6.57;;;;;;;;;;4823713;29;94011;-72
2022/02/13 11:05:28;;;;;;;7.75;7.05;;;;;;;;;;4823259;29;91957;-73
2022/02/13 11:08:20;;;;;;;6.90;6.03;;;;;;;;;;4824046;29;92325;-73
2022/02/13 11:11:04;;;;;;;11.00;7.38;;;;;;;;;;4818606;29;94262;-72
2022/02/13 11:13:33;;;;;;;8.57;7.32;;;;;;;;;;4812589;29;94427;-76
2022/02/13 11:16:01;;;;;;;8.10;6.22;;;;;;;;;;4823952;29;92116;-73
2022/02/13 11:18:31;;;;;;;8.45;6.15;;;;;;;;;;4825459;29;92041;-73
2022/02/13 11:21:01;;;;;;;6.40;5.75;;;;;;;;;;4824679;29;94337;-73
2022/02/13 11:23:31;;;;;;;9.25;6.00;;;;;;;;;;4823387;29;95330;-72
2022/02/13 11:26:06;;;;;;;15.18;6.70;;;;;;;;;;4808836;29;92330;-73
2022/02/13 11:28:45;;;;;;;9.50;8.60;;;;;;;;;;4826459;29;91992;-73
2022/02/13 11:31:30;;;;;;;11.13;6.10;;;;;;;;;;4824470;29;94765;-73
2022/02/13 11:33:58;;;;;;;8.10;6.00;;;;;;;;;;4823963;29;94090;-73
2022/02/13 11:36:43;;;;;;;6.05;5.45;;;;;;;;;;4824353;29;92120;-74
2022/02/13 11:39:11;;;;;;;9.35;6.57;;;;;;;;;;4824216;29;93098;-78
2022/02/13 11:41:45;;;;;;;10.15;6.55;;;;;;;;;;4822119;29;94939;-75
2022/02/13 11:44:39;;;;;;;8.00;6.40;;;;;;;;;;4824046;29;94479;-72
2022/02/13 11:47:10;;;;;;;11.50;6.28;;;;;;;;;;4824948;29;92800;-74
2022/02/13 11:50:21;;;;;;;12.13;6.85;;;;;;;;;;4840275;29;92516;-74
2022/02/13 11:52:58;;;;;;;7.55;5.45;;;;;;;;;;4752685;29;94568;-75
2022/02/13 11:55:27;;;;;;;8.35;6.30;;;;;;;;;;4754737;29;94117;-77
2022/02/13 11:58:04;;;;;;;8.68;6.28;;;;;;;;;;4782036;29;92154;-73
2022/02/13 12:00:36;;;;;;;8.98;6.45;;;;;;;;;;4826797;29;91839;-71
2022/02/13 12:03:19;;;;;;;6.15;4.97;;;;;;;;;;4826870;29;93970;-72
2022/02/13 12:06:10;;;;;;;9.88;6.70;;;;;;;;;;4828619;29;93394;-72
2022/02/13 12:08:38;;;;;;;6.75;6.15;;;;;;;;;;4823865;29;92040;-71
2022/02/13 12:11:10;;;;;;;6.60;5.65;;;;;;;;;;4828336;29;92501;-72
2022/02/13 12:13:38;;;;;;;7.95;6.40;;;;;;;;;;4829096;29;95974;-72
2022/02/13 12:16:06;;;;;;;9.00;6.00;;;;;;;;;;4828130;29;94870;-74
2022/02/13 12:18:34;;;;;;;7.93;5.57;;;;;;;;;;4828159;29;91931;-72
2022/02/13 12:21:05;;;;;;;13.43;8.10;;;;;;;;;;4829920;29;92024;-72
2022/02/13 12:23:33;;;;;;;8.93;7.15;;;;;;;;;;4827639;29;93769;-72
2022/02/13 12:26:00;;;;;;;11.10;9.82;;;;;;;;;;4828299;29;92828;-72
2022/02/13 12:28:36;;;;;;;13.43;8.55;;;;;;;;;;4829636;29;92380;-72
2022/02/13 12:31:06;;;;;;;7.72;6.93;;;;;;;;;;4822233;29;91248;-73
2022/02/13 12:33:44;;;;;;;11.43;8.50;;;;;;;;;;4823573;29;94457;-72
2022/02/13 12:36:12;;;;;;;11.27;9.25;;;;;;;;;;4829856;29;94200;-73
2022/02/13 12:38:40;;;;;;;9.25;8.35;;;;;;;;;;4829107;29;92832;-71
2022/02/13 12:41:09;;;;;;;9.38;8.13;;;;;;;;;;4813851;29;91934;-71
2022/02/13 12:43:37;;;;;;;9.27;7.65;;;;;;;;;;4829254;29;93827;-72
2022/02/13 12:46:05;;;;;;;18.40;10.85;;;;;;;;;;4813090;29;92887;-72
2022/02/13 12:48:37;;;;;;;8.65;7.10;;;;;;;;;;4811602;29;92027;-72
2022/02/13 12:51:06;;;;;;;8.23;6.10;;;;;;;;;;4828193;29;92022;-72
2022/02/13 12:53:35;;;;;;;7.88;7.07;;;;;;;;;;4821649;29;94663;-73
2022/02/13 12:56:05;;;;;;;9.18;6.55;;;;;;;;;;4812188;29;94235;-73
2022/02/13 12:58:35;;;;;;;10.68;8.07;;;;;;;;;;4828429;29;91918;-73
2022/02/13 13:01:04;;;;;;;13.60;7.35;;;;;;;;;;4828331;29;91840;-73
2022/02/13 13:03:36;;;;;;;7.68;6.95;;;;;;;;;;4828372;29;95722;-74
2022/02/13 13:06:04;;;;;;;8.10;7.25;;;;;;;;;;4828928;29;94797;-72
2022/02/13 13:08:43;;;;;;;12.98;8.85;;;;;;;;;;4829282;29;92760;-73
2022/02/13 13:11:13;;;;;;;7.82;5.65;;;;;;;;;;4829316;29;91951;-73
2022/02/13 13:13:42;;;;;;;8.23;6.20;;;;;;;;;;4812562;29;95320;-73
2022/02/13 13:16:14;;;;;;;9.20;7.10;;;;;;;;;;4829002;29;91889;-73
2022/02/13 13:18:45;;;;;;;7.53;5.57;;;;;;;;;;4813380;29;92014;-73
2022/02/13 13:21:23;;;;;;;35.20;10.52;;;;;;;;;;4829511;29;91278;-73
2022/02/13 13:24:16;;;;;;;10.25;7.15;;;;;;;;;;4828072;29;93588;-73
2022/02/13 13:27:06;;;;;;;8.70;7.68;;;;;;;;;;4827855;29;92958;-73
2022/02/13 13:29:42;;;;;;;9.15;7.10;;;;;;;;;;4827457;29;92999;-72
2022/02/13 13:32:21;;;;;;;7.70;5.53;;;;;;;;;;4812697;29;92248;-73
2022/02/13 13:34:55;;;;;;;16.60;6.53;;;;;;;;;;4829271;29;94273;-73
2022/02/13 13:37:35;;;;;;;10.52;7.35;;;;;;;;;;4812240;29;94003;-73
2022/02/13 13:40:08;;;;;;;9.60;6.63;;;;;;;;;;4829769;29;91937;-73
2022/02/13 13:42:49;;;;;;;10.02;7.40;;;;;;;;;;4829515;29;91857;-73
2022/02/13 13:45:23;;;;;;;8.88;7.07;;;;;;;;;;4829013;29;93311;-73
2022/02/13 13:47:52;;;;;;;9.23;5.72;;;;;;;;;;4829603;29;93871;-73
2022/02/13 13:50:24;;;;;;;8.02;7.25;;;;;;;;;;4829431;29;92064;-73
2022/02/13 13:52:52;;;;;;;7.68;6.65;;;;;;;;;;4811681;29;91879;-73
2022/02/13 13:55:19;;;;;;;7.57;6.32;;;;;;;;;;4826845;29;94939;-73
2022/02/13 13:57:46;;;;;;;8.88;6.65;;;;;;;;;;4827424;29;94707;-72
2022/02/13 14:00:17;;;;;;;7.93;6.30;;;;;;;;;;4829181;29;92383;-73
2022/02/13 14:03:00;;;;;;;10.35;5.38;;;;;;;;;;4828810;29;92101;-73
2022/02/13 14:05:30;;;;;;;6.28;5.63;;;;;;;;;;4828447;29;94850;-73
2022/02/13 14:08:00;;;;;;;13.35;8.13;;;;;;;;;;4828654;29;95143;-72
2022/02/13 14:10:28;;;;;;;9.68;7.85;;;;;;;;;;4828562;29;92077;-72
2022/02/13 14:12:56;;;;;;;9.40;7.18;;;;;;;;;;4829585;29;91826;-72
2022/02/13 14:15:26;;;;;;;8.02;7.20;;;;;;;;;;4828422;29;94198;-72
2022/02/13 14:17:55;;;;;;;8.32;6.90;;;;;;;;;;4829086;29;94303;-72
2022/02/13 14:20:23;;;;;;;8.68;7.00;;;;;;;;;;4828222;29;93007;-72
2022/02/13 14:22:58;;;;;;;7.28;6.55;;;;;;;;;;4826897;29;91894;-72
2022/02/13 14:25:26;;;;;;;8.48;7.13;;;;;;;;;;4825415;29;94293;-72
2022/02/13 14:27:54;;;;;;;7.38;6.50;;;;;;;;;;4828455;29;94187;-72
2022/02/13 14:30:23;;;;;;;8.63;6.18;;;;;;;;;;4828902;29;91903;-72
2022/02/13 14:32:50;;;;;;;7.53;5.70;;;;;;;;;;4828524;29;92054;-72
2022/02/13 14:35:18;;;;;;;8.20;6.10;;;;;;;;;;4828259;29;94307;-72
2022/02/13 14:37:49;;;;;;;6.75;6.05;;;;;;;;;;4828138;29;94155;-72
2022/02/13 14:40:17;;;;;;;11.25;6.88;;;;;;;;;;4812941;29;91853;-72
2022/02/13 14:42:45;;;;;;;14.82;7.53;;;;;;;;;;4828505;29;92048;-71
2022/02/13 14:45:13;;;;;;;8.80;6.95;;;;;;;;;;4827815;29;94953;-70
2022/02/13 14:47:41;;;;;;;9.48;6.72;;;;;;;;;;4795991;29;94919;-72
2022/02/13 14:50:09;;;;;;;8.95;6.45;;;;;;;;;;4828205;29;91901;-72